Aérodrome :
LOGIN :

S'inscrire | Disclaimer

   EN    FR    IT 

 










Légende :    VFR   VFR Marginal   IFR   IFR Intensif   IFR Très Intensif
Visi : 
Plafond : 
>= 8 km
>= 3000ft
5 à 8 km
1000 à 3000 ft
1500m à 5 km
500 à 1000 ft
800 à 1500m
200 à 500 ft
< 800m
< 200 ft
Symboles :   Orages  Brouillard  Fortes neiges  Fortes précipitations  Vent > 20 kt
SIGMETs :   Divers  Orages  Givrage  Turbulence  Onde Orograph.  Cendres Volcan.







- Altitude de l'aérodrome : 1455 ft


ETIH - Hohenfels Army Air Field

DERNIER METAR :
  • 201311Z AUTO 28005KT 9999 -RA FEW010 FEW016 SCT022 BKN029 BKN043 OVC055 15/15 A2959 RMK AO2 CIG 029V043 BKN029 V SCT SLP016 $

METARs EXPIRÉS :
  • 201256Z AUTO 29005KT 8000 RA BR FEW012 SCT044 BKN060 15/15 A2959 RMK AO2 SLP016 P0003 T01530151 $
  • 201215Z AUTO 00000KT 9999 -RA SCT022 BKN031 OVC050 15/15 A2959 RMK AO2 SLP018 $
  • 201156Z AUTO 05004KT 9999 -RA BKN024 16/15 A2959 RMK AO2 RAB16 CIG 024V030 SLP016 P0000 60000 T01600154 10179 20145 50002 $
  • 201138Z AUTO 07003KT 9999 -RA SCT025 SCT038 BKN050 OVC060 16/14 A2959 RMK AO2 RAB16 SLP016 $
  • 201116Z AUTO 36003KT 9999 -RA FEW026 BKN060 17/13 A2959 RMK AO2 RAB16 SLP016 $
  • 201056Z AUTO 02004KT 9999 FEW024 BKN065 17/14 A2959 RMK AO2 SLP016 T01680137 $

Prévision TAF périmée.
Pas de NOTAMs connus pour ce terrain.
9 SIGMETs publiés pour la FIR München (EDMM) :
 
Orages noyés dans la masse
EDMM SIGMET 9 VALID 201245/201400 EDZF
EDMM MUNCHEN FIR EMBD TS OBS WI N4852 E01133 - N4753 E01154 - N4756 E01024 - N4827 E01029 - N4852 E01133 FL320 MOV S 15KT NC=
Orages noyés dans la masse
EDMM SIGMET 7 VALID 201220/201330 EDZF
EDMM MUNCHEN FIR EMBD TS OBS APRX 35NM WID LINE BTN N5036 E01143 - N5147 E01152 TOP FL320 MOV SSW 20KT NC=
Orages fréquents avec grêle
EDMM SIGMET 5 VALID 201212/201410 EDZF
EDMM MUNCHEN FIR FRQ TSGR FCST APRX 20NM WID LINE BTN N5005 E01108 - N5123 E01028 TOP FL350 MOV SSW 20KT NC=
Annulation du SIGMET 1 
EDMM SIGMET 4 VALID 201326/201330 EDZF
EDMM MUNCHEN FIR CNL SIGMET 1 201220/201330=
Orages noyés dans la masse
EDMM SIGMET 4 VALID 201030/201300 EDZF
EDMM MUNCHEN FIR EMBD TS FCST WI N4917 E01058 - N4901 E01157 - N4829 E01154 - N4845 E01003 - N4917 E01058 TOP FL300 MOV SW NC=
Orages noyés dans la masse
EDMM SIGMET 11 VALID 201325/201430 EDZF
EDMM MUNCHEN FIR EMBD TS OBS APRX 35NM WID LINE BTN N5149 E01119 - N5018 E01112 TOP FL320 MOV SSW 15KT NC=
Annulation du SIGMET 4 
EDMM SIGMET 10 VALID 201246/201300 EDZF
EDMM MUNCHEN FIR CNL SIGMET 4 201030/201300=
Orages noyés dans la masse
EDMM SIGMET 1 VALID 201220/201330 EDZF
EDMM MUNCHEN FIR EMBD TS OBS APRX 35NM WID LINE BTN N5036 E01143 - N5149 E01151 TOP FL320 MOV SSW 20KT NC=
Orages fréquents avec grêle
EDMM SIGMET 1 VALID 201213/201410 EDZF
EDMM MUNCHEN FIR FRQ TSGR FCST APRX 20NM WID LINE BTN N5005 E01108 - N5122 E01032 TOP FL350 MOV SSW 20KT NC=



MET'MAP, la Météo Aéronautique d'un coup d'oeil ! - Copyright ORBIFLY Décembre 2007 - Disclaimer

ORBIFLY MET'MAP TEAM :

Programmation & Développement : Alexandra Zaïnal
Conception & Développement : Baudouin d'Aumeries
Co-Programmation & Développement : Marc-Olivier Méhu
Soutien technique & logistique : Manuel Goepfert

Contact : metmap@orbifly.com




SOURCES & CREDITS :

   NOAA